KCNB

Myers Field Airport

Canby, Minnesota, USA
METAR KCNB 160555Z AUTO 00000KT 7SM CLR 21/19 A2999 RMK AO2 T02110191 10251 20211 402850175
Observed Flight Rules
Aug-16 @ 05:55 UTC (22 minutes ago) Visual Flight Rules
Visibility Clouds
7 miles
  • Clear skies
Temperatures Readings
Current 21°C / 70°F
Dewpoint 19°C / 66°F
Humidity 88%
Altimeter 29.99" Hg
Pressure 1016 hPa
Elevation 364
METAR KCNB 160555Z AUTO 00000KT 7SM CLR 21/19 A2999 RMK AO2 T02110191 10251 20211 402850175
Observed Flight Rules
Aug-16 @ 05:55 UTC
(22 minutes ago)
VFR
Clouds
  • Clear skies
Temperature Dewpoint
21°C / 70°F 19°C / 66°F
Humidity Altimeter Pressure
88% 29.99" Hg 1016 hPa